Welkom op de website van Weerstation Hoek van Holland.
Het weer levert geen direct gevaar op.    Er zijn geen waarschuwingen afgegeven.

Onweer radar Meer informatie blitzortung!


Regen radar Meer informatie rain snow radar



METAR rapporten vliegvelden

   
EHRD - Rotterdam International Airport, NL
Afstand tot: Oost 31 km
Gewijzigd: 17-02-2019 16:55
Gedeeltelijk bewolkt  
Gedeeltelijk bewolkt  
   Wind: Zuiden 18.5 km/h
Wind: Zuiden 18.5 km/h
Temperatuur: 15°C
Dauwpunt: 3°C
Vochtigheid: 45%
Barometer: 1017 hPa
Bewolking: Partly Cloudy
Zicht: meer dan 10 km
Bewolking: Gedeeltelijk bewolkt ft
EHRD 171555Z AUTO 17010KT 9999 NSC 15/03 Q1017 NOSIG
EHAM - Amsterdam Schiphol, NL
Afstand tot: Noord 17 km
Gewijzigd: 17-02-2019 16:55
Helder  
Helder  
   Wind: ZZO 16.7 km/h
Wind: ZZO 16.7 km/h
Temperatuur: 13°C
Dauwpunt: 5°C
Vochtigheid: 59%
Barometer: 1017 hPa
Zicht: meer dan 10 km
Bewolking: Helder ft
EHAM 171555Z 16009KT CAVOK 13/05 Q1017 NOSIG
EBAW - Antwerpen/Deurne, B
Afstand tot: Zuid 138 km
Gewijzigd: 17-02-2019 16:50
Helder  
Helder  
   Wind: ZZW 13 km/h
Wind: ZZW 13 km/h
Temperatuur: 16°C
Dauwpunt: -2°C
Vochtigheid: 29%
Barometer: 1018 hPa
Zicht: meer dan 10 km
Bewolking: Helder ft
EBAW 171550Z 20007KT CAVOK 16/M02 Q1018 NOSIG
EHEH - Eindhoven, NL
Afstand tot: OZO 140 km
Gewijzigd: 17-02-2019 16:55
Bewolking  
Bewolking  
   Wind: Zuiden 14.8 km/h
Wind: Zuiden 14.8 km/h
Temperatuur: 16°C
Dauwpunt: 2°C
Vochtigheid: 39%
Barometer: 1018 hPa
Bewolking: Overcast
Zicht: meer dan 10 km
Bewolking: Bewolking 31000 ft
EHEH 171555Z AUTO 18008KT 9999 OVC310 16/02 Q1018 BLU 17008KT CAVOK
  

Script ontwikkeld door  Saratoga-weather.org Aangepast voor de template door  Weerstation Leuven

Apparatuur in gebruik:

Weerstation
Davis VP2

Weerprogramma
Meteobridge

Weercomputer
meteobridge met meteostick

Webleverancier
Strato

Davis VP2

Meteobridge

meteobridge met meteostick

Strato